Aérodrome :
LOGIN :

S'inscrire | Disclaimer

   EN    FR    IT 

 










Légende :    VFR   VFR Marginal   IFR   IFR Intensif   IFR Très Intensif
Visi : 
Plafond : 
>= 8 km
>= 3000ft
5 à 8 km
1000 à 3000 ft
1500m à 5 km
500 à 1000 ft
800 à 1500m
200 à 500 ft
< 800m
< 200 ft
Symboles :   Orages  Brouillard  Fortes neiges  Fortes précipitations  Vent > 20 kt
SIGMETs :   Divers  Orages  Givrage  Turbulence  Onde Orograph.  Cendres Volcan.






- Altitude de l'aérodrome : 390 ft
- Code IATA : NQY


EGHQ - Newquay

DERNIER METAR :
  • 141550Z 27008KT 0250 R30/0275 FG VV/// 18/18 Q1015

METARs EXPIRÉS :
  • 141520Z 27009KT 0250 R30/0600 FG VV/// 18/18 Q1015
  • 141450Z 28008KT 0300 R30/0350 FG VV/// 18/18 Q1015
  • 141420Z 26008KT 0300 R30/0350 FG VV/// 18/18 Q1015
  • 141350Z 25008KT 0250 R30/0400 FG VV/// 18/18 Q1015
  • 141320Z 26007KT 0200 R30/0375 FG VV/// 18/18 Q1015

TAF TAF EGHQ
Valide du 14 à 15h jusqu'au 15 à 00h UTC


141357Z 1415/1424 25004KT 0200 FG BKN000
PROB30
TEMPO 1415/1424 VRB15G25KT 3000 +TSRA



MET'MAP, la Météo Aéronautique d'un coup d'oeil ! - Copyright ORBIFLY Décembre 2007 - Disclaimer

ORBIFLY MET'MAP TEAM :

Programmation & Développement : Alexandra Zaïnal
Sur une idée originale de : Baudouin d'Aumeries
Assistance à la programmation : Marc-Olivier Méhu
Soutien technique & logistique : Manuel Goepfert

Contact : metmap@orbifly.com




SOURCES & CREDITS :

   NOAA